createdAt,value
2023-02-01T00:00:46.547Z,100743.28
2023-02-01T00:03:16.585Z,100771.00
2023-02-01T00:05:46.748Z,100790.56
2023-02-01T00:08:15.380Z,100785.22
2023-02-01T00:10:44.769Z,100794.56
2023-02-01T00:13:13.519Z,100790.72
2023-02-01T00:15:42.518Z,100794.75
2023-02-01T00:18:11.818Z,100792.66
2023-02-01T00:20:40.945Z,100798.59
2023-02-01T00:26:38.863Z,100795.34
2023-02-01T00:29:12.770Z,100794.75
2023-02-01T00:31:45.415Z,100799.44
2023-02-01T00:34:17.342Z,100801.84
2023-02-01T00:36:47.871Z,100793.78
2023-02-01T00:39:18.785Z,100798.72
2023-02-01T00:41:48.191Z,100797.78
2023-02-01T00:44:17.435Z,100804.44
2023-02-01T00:46:46.767Z,100805.56
2023-02-01T00:49:16.452Z,100801.44
2023-02-01T00:51:45.265Z,100810.94
2023-02-01T00:54:14.753Z,100819.13
2023-02-01T00:56:43.500Z,100828.97
2023-02-01T00:59:14.047Z,100809.03
2023-02-01T01:01:43.148Z,100802.22
2023-02-01T01:04:13.197Z,100790.13
2023-02-01T01:06:42.565Z,100800.53
2023-02-01T01:09:11.620Z,100794.44
2023-02-01T01:11:41.384Z,100793.94
2023-02-01T01:14:13.689Z,100803.84
2023-02-01T01:16:47.154Z,100802.84
2023-02-01T01:19:22.937Z,100807.19
2023-02-01T01:21:53.041Z,100805.59
2023-02-01T01:24:28.899Z,100801.84
2023-02-01T01:27:03.158Z,100810.94
2023-02-01T01:29:32.803Z,100822.22
2023-02-01T01:32:02.304Z,100828.41
2023-02-01T01:34:32.901Z,100826.56
2023-02-01T01:37:02.525Z,100823.66
2023-02-01T01:39:32.649Z,100827.56
2023-02-01T01:42:02.023Z,100825.09
2023-02-01T01:45:02.763Z,100820.81
2023-02-01T01:47:39.387Z,100812.19
2023-02-01T01:50:14.758Z,100806.03
2023-02-01T01:52:48.871Z,100809.75
2023-02-01T01:55:20.849Z,100793.63
2023-02-01T01:58:01.126Z,100804.16
2023-02-01T02:00:32.534Z,100800.41
2023-02-01T02:03:18.968Z,100801.84
2023-02-01T02:05:51.402Z,100806.75
2023-02-01T02:08:22.273Z,100801.72
2023-02-01T02:11:11.286Z,100794.19
2023-02-01T02:13:45.306Z,100795.72
2023-02-01T02:16:45.992Z,100791.63
2023-02-01T02:19:18.985Z,100796.78
2023-02-01T02:22:11.471Z,100784.81
2023-02-01T02:25:25.695Z,100800.22
2023-02-01T02:28:02.923Z,100799.97
2023-02-01T02:31:02.608Z,100775.09
2023-02-01T02:33:54.826Z,100777.72
2023-02-01T02:36:49.339Z,100790.50
2023-02-01T02:39:38.268Z,100782.31
2023-02-01T02:42:41.919Z,100794.91
2023-02-01T02:46:00.618Z,100792.34
2023-02-01T02:48:47.563Z,100796.03
2023-02-01T02:51:45.867Z,100781.34
2023-02-01T02:54:40.131Z,100778.94
2023-02-01T02:57:33.849Z,100759.56
2023-02-01T03:00:26.317Z,100772.25
2023-02-01T03:03:17.256Z,100767.53
2023-02-01T03:05:47.897Z,100762.41
2023-02-01T03:08:25.205Z,100770.53
2023-02-01T03:11:07.049Z,100786.63
2023-02-01T03:14:00.180Z,100794.97
2023-02-01T03:16:59.059Z,100796.50
2023-02-01T03:19:40.434Z,100799.63
2023-02-01T03:22:18.543Z,100804.56
2023-02-01T03:25:13.057Z,100813.19
2023-02-01T03:28:05.155Z,100810.47
2023-02-01T03:30:47.158Z,100801.56
2023-02-01T03:33:23.295Z,100799.25
2023-02-01T03:36:34.917Z,100786.69
2023-02-01T03:39:30.235Z,100793.56
2023-02-01T03:42:05.126Z,100771.69
2023-02-01T03:44:35.511Z,100774.81
2023-02-01T03:47:14.950Z,100777.84
2023-02-01T03:50:03.264Z,100767.47
2023-02-01T03:52:41.714Z,100754.28
2023-02-01T03:55:15.113Z,100738.44
2023-02-01T03:58:00.953Z,100738.69
2023-02-01T04:00:33.434Z,100716.66
2023-02-01T04:03:05.260Z,100728.91
2023-02-01T04:05:36.381Z,100722.81
2023-02-01T04:08:10.037Z,100711.84
2023-02-01T04:10:39.978Z,100709.97
2023-02-01T04:13:11.556Z,100706.97
2023-02-01T04:15:41.678Z,100713.16
2023-02-01T04:18:11.152Z,100696.41
2023-02-01T04:20:41.024Z,100688.41
2023-02-01T04:23:10.215Z,100684.53
2023-02-01T04:25:38.797Z,100688.66
2023-02-01T04:28:08.972Z,100686.75
2023-02-01T04:30:39.665Z,100683.75
2023-02-01T04:33:10.475Z,100683.94
2023-02-01T04:35:41.244Z,100682.28
2023-02-01T04:38:10.291Z,100688.81
2023-02-01T04:40:39.640Z,100681.97
2023-02-01T04:43:10.949Z,100671.09
2023-02-01T04:45:39.925Z,100663.28
2023-02-01T04:48:09.684Z,100655.47
2023-02-01T04:50:38.710Z,100663.38
2023-02-01T04:53:07.574Z,100678.06
2023-02-01T04:55:36.783Z,100696.25
2023-02-01T04:58:05.222Z,100692.00
2023-02-01T05:00:34.944Z,100721.63
2023-02-01T05:03:05.861Z,100715.00
2023-02-01T05:05:34.510Z,100730.28
2023-02-01T05:08:03.149Z,100740.09
2023-02-01T05:10:32.095Z,100740.84
2023-02-01T05:13:19.793Z,100723.34
2023-02-01T05:15:48.835Z,100720.84
2023-02-01T05:18:17.406Z,100710.81
2023-02-01T05:20:46.576Z,100711.22
2023-02-01T05:23:15.872Z,100702.25
2023-02-01T05:25:46.312Z,100694.44
2023-02-01T05:28:14.885Z,100709.00
2023-02-01T05:30:44.870Z,100698.88
2023-02-01T05:33:13.457Z,100705.09
2023-02-01T05:35:42.634Z,100700.03
2023-02-01T05:38:11.972Z,100711.69
2023-02-01T05:40:41.477Z,100714.66
2023-02-01T05:43:10.178Z,100722.78
2023-02-01T05:45:38.970Z,100715.72
2023-02-01T05:48:09.333Z,100699.03
2023-02-01T05:50:39.275Z,100685.66
2023-02-01T05:53:10.921Z,100692.34
2023-02-01T05:55:40.903Z,100671.66
2023-02-01T05:58:10.249Z,100667.00
2023-02-01T06:00:38.866Z,100687.78
2023-02-01T06:03:08.919Z,100690.28
2023-02-01T06:05:38.551Z,100718.72
2023-02-01T06:08:09.223Z,100706.25
2023-02-01T06:10:38.887Z,100701.06
2023-02-01T06:13:08.121Z,100706.56
2023-02-01T06:15:39.399Z,100715.81
2023-02-01T06:18:08.968Z,100736.88
2023-02-01T06:20:37.867Z,100742.22
2023-02-01T06:23:06.587Z,100738.88
2023-02-01T06:25:34.950Z,100743.91
2023-02-01T06:28:07.281Z,100727.53
2023-02-01T06:30:36.843Z,100722.63
2023-02-01T06:33:05.276Z,100701.88
2023-02-01T06:35:34.184Z,100688.59
2023-02-01T06:38:02.687Z,100695.97
2023-02-01T06:40:31.283Z,100679.63
2023-02-01T06:43:00.928Z,100679.75
2023-02-01T06:45:30.419Z,100658.19
2023-02-01T06:48:02.266Z,100649.38
2023-02-01T06:50:31.108Z,100650.53
2023-02-01T06:53:00.373Z,100647.16
2023-02-01T06:55:29.993Z,100657.06
2023-02-01T06:57:59.556Z,100662.53
2023-02-01T07:00:28.368Z,100675.56
2023-02-01T07:02:59.627Z,100691.13
2023-02-01T07:05:29.801Z,100703.28
2023-02-01T07:07:59.698Z,100709.88
2023-02-01T07:10:29.535Z,100708.22
2023-02-01T07:13:01.652Z,100707.28
2023-02-01T07:15:30.720Z,100698.75
2023-02-01T07:17:59.488Z,100682.09
2023-02-01T07:20:33.200Z,100687.88
2023-02-01T07:23:01.855Z,100698.22
2023-02-01T07:25:33.344Z,100710.59
2023-02-01T07:28:03.514Z,100722.09
2023-02-01T07:30:33.957Z,100685.03
2023-02-01T07:33:02.756Z,100694.38
2023-02-01T07:35:33.552Z,100715.66
2023-02-01T07:38:03.093Z,100724.34
2023-02-01T07:40:32.983Z,100730.53
2023-02-01T07:43:02.911Z,100724.66
2023-02-01T07:45:36.717Z,100714.59
2023-02-01T07:48:07.298Z,100710.19
2023-02-01T07:50:38.942Z,100699.13
2023-02-01T07:53:09.201Z,100689.34
2023-02-01T07:55:42.891Z,100685.72
2023-02-01T07:58:11.897Z,100693.13
2023-02-01T08:01:01.715Z,100700.84
2023-02-01T08:03:33.263Z,100707.97
2023-02-01T08:06:02.106Z,100718.91
2023-02-01T08:08:31.142Z,100727.31
2023-02-01T08:11:05.451Z,100716.56
2023-02-01T08:13:37.491Z,100716.94
2023-02-01T08:16:12.045Z,100715.81
2023-02-01T08:18:43.178Z,100724.75
2023-02-01T08:21:18.879Z,100708.53
2023-02-01T08:23:48.139Z,100700.00
2023-02-01T08:26:27.488Z,100701.81
2023-02-01T08:29:02.529Z,100692.47
2023-02-01T08:31:33.550Z,100713.00
2023-02-01T08:34:06.526Z,100731.22
2023-02-01T08:36:35.657Z,100732.59
2023-02-01T08:39:10.801Z,100735.34
2023-02-01T08:41:40.845Z,100716.59
2023-02-01T08:44:11.083Z,100720.41
2023-02-01T08:46:43.147Z,100724.75
2023-02-01T08:49:13.056Z,100741.53
2023-02-01T08:51:43.210Z,100758.66
2023-02-01T08:54:13.664Z,100739.47
2023-02-01T08:56:42.475Z,100744.81
2023-02-01T08:59:11.396Z,100734.88
2023-02-01T09:01:42.150Z,100732.78
2023-02-01T09:04:11.066Z,100738.50
2023-02-01T09:06:43.358Z,100731.22
2023-02-01T09:09:12.483Z,100734.94
2023-02-01T09:11:41.448Z,100742.03
2023-02-01T09:14:10.712Z,100743.13
2023-02-01T09:16:38.954Z,100754.31
2023-02-01T09:19:27.187Z,100741.31
2023-02-01T09:21:58.278Z,100754.31
2023-02-01T09:24:27.147Z,100756.97
2023-02-01T09:26:56.894Z,100748.59
2023-02-01T09:29:26.088Z,100754.59
2023-02-01T09:32:03.371Z,100754.44
2023-02-01T09:34:33.099Z,100758.09
2023-02-01T09:37:02.028Z,100750.69
2023-02-01T09:39:31.674Z,100754.59
2023-02-01T09:42:34.647Z,100743.94
2023-02-01T09:45:31.534Z,100749.81
2023-02-01T09:48:12.353Z,100760.31
2023-02-01T09:50:46.398Z,100768.28
2023-02-01T09:53:23.811Z,100782.97
2023-02-01T09:55:58.037Z,100762.69
2023-02-01T09:58:41.631Z,100742.09
2023-02-01T10:01:21.366Z,100754.41
2023-02-01T10:03:52.257Z,100743.38
2023-02-01T10:06:37.111Z,100736.53
2023-02-01T10:09:17.701Z,100737.94
2023-02-01T10:11:57.284Z,100730.22
2023-02-01T10:14:30.926Z,100731.91
2023-02-01T10:17:36.946Z,100737.47
2023-02-01T10:20:29.355Z,100742.13
2023-02-01T10:23:34.462Z,100744.50
2023-02-01T10:26:26.606Z,100751.59
2023-02-01T10:29:04.976Z,100728.78
2023-02-01T10:31:39.209Z,100736.06
2023-02-01T10:34:19.255Z,100731.28
2023-02-01T10:37:26.165Z,100740.66
2023-02-01T10:40:11.359Z,100737.34
2023-02-01T10:42:42.395Z,100757.09
2023-02-01T10:45:19.418Z,100775.50
2023-02-01T10:47:51.645Z,100771.59
2023-02-01T10:50:45.224Z,100788.97
2023-02-01T10:53:23.957Z,100772.13
2023-02-01T10:55:54.984Z,100774.94
2023-02-01T10:58:31.109Z,100793.84
2023-02-01T11:01:10.120Z,100786.59
2023-02-01T11:03:41.942Z,100790.75
2023-02-01T11:06:30.322Z,100801.97
2023-02-01T11:09:10.225Z,100794.84
2023-02-01T11:11:50.982Z,100787.84
2023-02-01T11:14:27.771Z,100788.00
2023-02-01T11:17:00.121Z,100807.19
2023-02-01T11:19:30.313Z,100810.53
2023-02-01T11:22:02.521Z,100806.06
2023-02-01T11:24:37.170Z,100811.09
2023-02-01T11:27:18.935Z,100813.91
2023-02-01T11:30:01.802Z,100830.41
2023-02-01T11:32:31.796Z,100843.84
2023-02-01T11:35:08.712Z,100847.78
2023-02-01T11:37:44.751Z,100854.22
2023-02-01T11:40:19.315Z,100847.78
2023-02-01T11:42:59.255Z,100855.16
2023-02-01T11:45:36.674Z,100867.88
2023-02-01T11:48:26.291Z,100864.72
2023-02-01T11:51:10.186Z,100846.63
2023-02-01T11:53:58.024Z,100842.81
2023-02-01T11:56:53.721Z,100850.06
2023-02-01T11:59:56.414Z,100856.84
2023-02-01T12:02:42.127Z,100871.16
2023-02-01T12:05:30.629Z,100876.13
2023-02-01T12:08:14.040Z,100880.13
2023-02-01T12:11:11.586Z,100897.03
2023-02-01T12:14:21.707Z,100912.72
2023-02-01T12:17:16.832Z,100904.78
2023-02-01T12:20:05.665Z,100891.59
2023-02-01T12:23:02.937Z,100920.28
2023-02-01T12:25:55.997Z,100920.41
2023-02-01T12:28:42.827Z,100921.09
2023-02-01T12:31:12.067Z,100923.97
2023-02-01T12:34:03.379Z,100942.19
2023-02-01T12:37:08.591Z,100940.56
2023-02-01T12:40:09.531Z,100931.63
2023-02-01T12:42:47.616Z,100945.31
2023-02-01T12:45:41.086Z,100946.16
2023-02-01T12:48:31.515Z,100952.78
2023-02-01T12:51:11.294Z,100961.00
2023-02-01T12:53:49.647Z,100966.88
2023-02-01T12:56:41.003Z,100971.00
2023-02-01T12:59:37.007Z,100972.28
2023-02-01T13:02:34.984Z,100978.09
2023-02-01T13:05:26.609Z,100955.47
2023-02-01T13:08:02.656Z,100976.78
2023-02-01T13:10:50.517Z,100978.34
2023-02-01T13:13:20.061Z,100987.66
2023-02-01T13:16:19.332Z,100975.22
2023-02-01T13:18:53.002Z,100982.78
2023-02-01T13:21:34.441Z,100981.38
2023-02-01T13:24:04.190Z,100986.78
2023-02-01T13:26:33.192Z,100988.66
2023-02-01T13:29:07.565Z,100994.69
2023-02-01T13:31:59.484Z,100995.13
2023-02-01T13:34:50.950Z,100999.31
2023-02-01T13:37:32.431Z,101007.28
2023-02-01T13:40:26.514Z,101007.41
2023-02-01T13:42:59.262Z,101017.13
2023-02-01T13:45:39.181Z,101017.13
2023-02-01T13:48:17.299Z,101027.63
2023-02-01T13:50:51.565Z,101036.53
2023-02-01T13:53:23.222Z,101027.59
2023-02-01T13:56:05.448Z,101031.38
2023-02-01T13:58:39.861Z,101054.88
2023-02-01T14:01:23.871Z,101068.78
2023-02-01T14:04:01.153Z,101070.56
2023-02-01T14:06:34.700Z,101080.09
2023-02-01T14:09:14.740Z,101075.78
2023-02-01T14:12:00.436Z,101062.31
2023-02-01T14:14:30.373Z,101053.81
2023-02-01T14:17:00.123Z,101067.22
2023-02-01T14:19:34.865Z,101078.47
2023-02-01T14:22:26.084Z,101086.00
2023-02-01T14:24:59.775Z,101083.28
2023-02-01T14:27:37.058Z,101078.50
2023-02-01T14:30:16.253Z,101097.16
2023-02-01T14:32:48.351Z,101095.41
2023-02-01T14:35:28.676Z,101084.84
2023-02-01T14:38:10.011Z,101068.03
2023-02-01T14:40:39.254Z,101088.88
2023-02-01T14:43:32.906Z,101106.94
2023-02-01T14:46:00.450Z,101100.56
2023-02-01T14:48:31.321Z,101116.88
2023-02-01T14:51:01.875Z,101114.97
2023-02-01T14:53:36.400Z,101120.22
2023-02-01T14:56:14.143Z,101136.47
2023-02-01T14:59:03.338Z,101148.06
2023-02-01T15:01:33.945Z,101164.44
2023-02-01T15:04:11.576Z,101165.34
2023-02-01T15:06:43.278Z,101180.63
2023-02-01T15:09:18.868Z,101177.84
2023-02-01T15:12:03.268Z,101177.94
2023-02-01T15:14:41.326Z,101171.53
2023-02-01T15:17:27.168Z,101173.81
2023-02-01T15:20:20.899Z,101183.13
2023-02-01T15:23:06.094Z,101182.25
2023-02-01T15:25:39.996Z,101171.03
2023-02-01T15:28:16.758Z,101172.56
2023-02-01T15:31:05.125Z,101167.50
2023-02-01T15:33:35.980Z,101164.09
2023-02-01T15:36:07.451Z,101159.09
2023-02-01T15:38:43.155Z,101168.75
2023-02-01T15:41:18.991Z,101191.63
2023-02-01T15:43:51.334Z,101190.88
2023-02-01T15:46:34.862Z,101190.50
2023-02-01T15:49:04.154Z,101193.34
2023-02-01T15:51:34.545Z,101184.28
2023-02-01T15:54:11.885Z,101165.59
2023-02-01T15:56:43.252Z,101172.31
2023-02-01T15:59:19.560Z,101186.88
2023-02-01T16:01:51.497Z,101185.41
2023-02-01T16:04:34.454Z,101185.97
2023-02-01T16:07:07.023Z,101161.66
2023-02-01T16:09:57.079Z,101164.38
2023-02-01T16:12:47.776Z,101163.56
2023-02-01T16:15:17.465Z,101169.47
2023-02-01T16:17:47.306Z,101166.50
2023-02-01T16:20:17.047Z,101150.69
2023-02-01T16:22:46.825Z,101168.63
2023-02-01T16:25:15.792Z,101138.13
2023-02-01T16:27:45.371Z,101133.94
2023-02-01T16:30:17.833Z,101135.94
2023-02-01T16:32:47.258Z,101140.66
2023-02-01T16:35:43.601Z,101137.00
2023-02-01T16:38:16.788Z,101130.78
2023-02-01T16:40:47.764Z,101124.50
2023-02-01T16:43:21.892Z,101110.84
2023-02-01T16:45:53.916Z,101117.19
2023-02-01T16:48:28.991Z,101109.88
2023-02-01T16:51:03.184Z,101120.66
2023-02-01T16:53:41.699Z,101110.03
2023-02-01T16:56:23.693Z,101100.09
2023-02-01T16:58:55.969Z,101099.94
2023-02-01T17:01:26.129Z,101089.69
2023-02-01T17:03:59.503Z,101098.28
2023-02-01T17:06:30.698Z,101104.16
2023-02-01T17:09:01.300Z,101086.97
2023-02-01T17:11:32.100Z,101079.91
2023-02-01T17:14:38.484Z,101057.41
2023-02-01T17:17:07.607Z,101060.22
2023-02-01T17:19:37.937Z,101059.53
2023-02-01T17:22:08.424Z,101073.41
2023-02-01T17:24:48.360Z,101064.59
2023-02-01T17:27:20.730Z,101058.97
2023-02-01T17:29:50.592Z,101065.75
2023-02-01T17:32:27.196Z,101053.25
2023-02-01T17:35:01.612Z,101055.09
2023-02-01T17:37:34.395Z,101065.09
2023-02-01T17:40:03.757Z,101083.56
2023-02-01T17:42:37.351Z,101088.91
2023-02-01T17:45:29.264Z,101075.91
2023-02-01T17:47:59.728Z,101072.19
2023-02-01T17:50:33.709Z,101072.88
2023-02-01T17:53:03.812Z,101065.19
2023-02-01T17:55:37.417Z,101052.72
2023-02-01T17:58:06.702Z,101041.66
2023-02-01T18:00:38.047Z,101043.56
2023-02-01T18:03:07.503Z,101035.03
2023-02-01T18:05:42.238Z,101019.78
2023-02-01T18:08:12.074Z,101031.00
2023-02-01T18:10:44.106Z,101036.75
2023-02-01T18:13:14.863Z,101031.13
2023-02-01T18:15:45.274Z,101003.13
2023-02-01T18:18:16.197Z,100997.97
2023-02-01T18:20:47.409Z,100992.63
2023-02-01T18:23:23.078Z,100999.50
2023-02-01T18:25:54.213Z,101009.28
2023-02-01T18:28:23.750Z,101010.69
2023-02-01T18:30:55.071Z,101011.81
2023-02-01T18:33:23.805Z,101017.69
2023-02-01T18:35:53.060Z,101008.19
2023-02-01T18:38:22.525Z,101024.03
2023-02-01T18:40:55.062Z,101014.31
2023-02-01T18:43:28.014Z,101026.78
2023-02-01T18:45:59.451Z,101010.38
2023-02-01T18:48:34.075Z,101003.22
2023-02-01T18:51:03.938Z,100991.63
2023-02-01T18:53:34.512Z,100984.78
2023-02-01T18:56:03.591Z,100971.03
2023-02-01T18:58:34.775Z,100986.19
2023-02-01T19:01:14.509Z,100985.63
2023-02-01T19:03:55.190Z,100975.00
2023-02-01T19:06:35.961Z,100965.31
2023-02-01T19:09:05.434Z,100967.50
2023-02-01T19:11:35.626Z,100974.09
2023-02-01T19:14:06.814Z,100980.53
2023-02-01T19:16:41.461Z,100986.50
2023-02-01T19:19:10.875Z,100980.22
2023-02-01T19:21:39.301Z,100984.94
2023-02-01T19:24:09.211Z,100983.81
2023-02-01T19:26:41.675Z,100982.56
2023-02-01T19:29:11.243Z,100974.44
2023-02-01T19:31:42.030Z,100986.63
2023-02-01T19:34:12.217Z,100979.13
2023-02-01T19:36:42.922Z,100976.34
2023-02-01T19:39:11.627Z,100965.75
2023-02-01T19:41:41.563Z,100970.81
2023-02-01T19:44:11.433Z,100969.16
2023-02-01T19:46:48.923Z,100977.69
2023-02-01T19:49:19.369Z,100991.53
2023-02-01T19:51:49.354Z,101003.97
2023-02-01T19:54:19.391Z,100998.03
2023-02-01T19:56:51.513Z,101003.03
2023-02-01T19:59:23.623Z,100991.78
2023-02-01T20:01:52.623Z,100996.53
2023-02-01T20:04:22.182Z,101005.78
2023-02-01T20:06:51.307Z,100996.09
2023-02-01T20:09:22.914Z,100999.50
2023-02-01T20:11:54.745Z,101005.50
2023-02-01T20:14:29.568Z,101005.50
2023-02-01T20:17:00.103Z,101001.44
2023-02-01T20:19:30.991Z,100994.75
2023-02-01T20:22:01.594Z,100981.44
2023-02-01T20:24:30.451Z,100996.00
2023-02-01T20:27:02.348Z,100986.72
2023-02-01T20:29:31.558Z,100996.25
2023-02-01T20:32:00.925Z,101003.41
2023-02-01T20:34:31.299Z,100996.69
2023-02-01T20:37:00.653Z,100985.88
2023-02-01T20:39:30.824Z,100985.47
2023-02-01T20:42:00.068Z,100997.66
2023-02-01T20:44:30.643Z,100985.63
2023-02-01T20:47:00.664Z,100977.50
2023-02-01T20:49:30.709Z,100977.63
2023-02-01T20:52:01.206Z,100979.34
2023-02-01T20:54:30.814Z,100976.13
2023-02-01T20:57:00.038Z,100983.66
2023-02-01T20:59:30.732Z,100977.22
2023-02-01T21:02:00.397Z,100985.63
2023-02-01T21:04:31.896Z,100990.38
2023-02-01T21:07:03.643Z,100988.56
2023-02-01T21:09:32.716Z,100992.34
2023-02-01T21:12:01.478Z,101004.28
2023-02-01T21:14:31.175Z,101000.53
2023-02-01T21:17:00.474Z,101002.66
2023-02-01T21:19:43.370Z,101003.16
2023-02-01T21:22:14.413Z,101006.13
2023-02-01T21:24:43.620Z,101005.06
2023-02-01T21:27:13.608Z,100998.56
2023-02-01T21:29:43.117Z,101011.09
2023-02-01T21:32:12.320Z,101014.59
2023-02-01T21:34:41.608Z,101005.84
2023-02-01T21:37:10.572Z,100999.75
2023-02-01T21:39:39.026Z,101000.75
2023-02-01T21:42:18.331Z,100999.19
2023-02-01T21:44:51.126Z,100998.78
2023-02-01T21:47:25.599Z,100997.72
2023-02-01T21:49:57.138Z,100999.19
2023-02-01T21:52:31.147Z,100998.84
2023-02-01T21:55:00.353Z,100996.19
2023-02-01T21:57:30.463Z,100994.50
2023-02-01T22:00:00.298Z,101001.47
2023-02-01T22:02:31.792Z,101009.44
2023-02-01T22:05:01.356Z,101000.44
2023-02-01T22:07:31.580Z,100998.19
2023-02-01T22:10:02.591Z,100984.75
2023-02-01T22:12:32.019Z,100985.31
2023-02-01T22:15:01.544Z,100987.78
2023-02-01T22:20:24.375Z,100983.50
2023-02-01T22:22:54.305Z,100985.00
2023-02-01T22:25:26.752Z,100992.53
2023-02-01T22:28:33.134Z,101001.72
2023-02-01T22:30:47.896Z,101001.44
2023-02-01T22:33:18.419Z,101007.19
2023-02-01T22:35:51.608Z,101005.78
2023-02-01T22:38:21.793Z,101008.91
2023-02-01T22:41:01.712Z,101024.56
2023-02-01T22:43:33.957Z,101028.34
2023-02-01T22:46:06.441Z,101026.31
2023-02-01T22:48:40.355Z,101036.25
2023-02-01T22:51:19.289Z,101038.69
2023-02-01T22:54:00.385Z,101030.03
2023-02-01T22:56:35.689Z,101031.31
2023-02-01T22:59:07.179Z,101027.50
2023-02-01T23:01:35.993Z,101029.88
2023-02-01T23:04:07.262Z,101037.81
2023-02-01T23:06:36.179Z,101039.78
2023-02-01T23:09:25.050Z,101041.72
2023-02-01T23:11:56.181Z,101039.69
2023-02-01T23:14:28.231Z,101047.16
2023-02-01T23:17:09.225Z,101049.66
2023-02-01T23:19:40.554Z,101034.28
2023-02-01T23:22:11.419Z,101044.97
2023-02-01T23:24:41.477Z,101063.53
2023-02-01T23:27:10.476Z,101070.91
2023-02-01T23:29:39.463Z,101081.97
2023-02-01T23:32:09.984Z,101069.59
2023-02-01T23:34:41.679Z,101062.72
2023-02-01T23:37:11.606Z,101049.09
2023-02-01T23:39:41.539Z,101043.69
2023-02-01T23:42:11.501Z,101039.09
2023-02-01T23:44:40.641Z,101054.03
2023-02-01T23:47:11.404Z,101059.47
2023-02-01T23:49:41.678Z,101068.22
2023-02-01T23:52:12.037Z,101047.59
2023-02-01T23:54:42.300Z,101055.03
2023-02-01T23:57:11.260Z,101065.16
2023-02-01T23:59:39.999Z,101066.59
